Shinmichimaru — JM6603 — position and weather

sailwx.info

Track history (hours):
 
Tides and Currents Weather Stations Pressure Air Temp Water Temp Dewpoint Dewpoint Depression Visibility Wind Speed Wind Dir Waves Ship Positions

Shinmichimaru

Last reported at 2018-Feb-26 03:00 UTC. Time now 2018-Feb-26 03:19 UTC.
Position N 34°57' E 136°39'.

Length 105 m; draft 6.3 m.

Type: Tanker. MMSI: 432356000.

Date/timePositionNaut miles runAvg speedWind from/ knotsBaromVisibWave heightAir tempDewpointWater temp
2018-Feb-26 03:00N 34°57' E 136°39'4 7.8
2018-Feb-26 02:30N 34°57' E 136°44'0 0.1
2018-Feb-26 02:00N 34°57' E 136°44'0 0.0
2018-Feb-26 01:30N 34°57' E 136°44'0 0.1
2018-Feb-26 01:00N 34°57' E 136°44'0 0.0
2018-Feb-26 00:30N 34°57' E 136°44'0 0.0
2018-Feb-26 00:00N 34°57' E 136°44'0 0.0
2018-Feb-25 23:30N 34°57' E 136°44'0 0.0
2018-Feb-25 23:00N 34°57' E 136°44'0 0.0
2018-Feb-25 22:30N 34°57' E 136°44'0 0.0
2018-Feb-25 22:00N 34°57' E 136°44'0 0.0
2018-Feb-25 21:29N 34°57' E 136°44'0 0.0
2018-Feb-25 21:00N 34°57' E 136°44'0 0.0
2018-Feb-25 20:30N 34°57' E 136°44'0 0.0
2018-Feb-25 20:00N 34°57' E 136°44'0 0.0
2018-Feb-25 19:29N 34°57' E 136°44'0 0.0
2018-Feb-25 19:00N 34°57' E 136°44'0 0.0
2018-Feb-25 18:30N 34°57' E 136°44'0 0.0
2018-Feb-25 18:00N 34°57' E 136°44'0 0.1
2018-Feb-25 17:30N 34°57' E 136°44'0 0.1
2018-Feb-25 17:00N 34°57' E 136°44'0 0.1
2018-Feb-25 16:30N 34°57' E 136°44'0 0.0
2018-Feb-25 16:00N 34°57' E 136°44'0 0.0
2018-Feb-25 15:29N 34°57' E 136°44'0 0.0
2018-Feb-25 15:00N 34°57' E 136°44'0 0.0
2018-Feb-25 14:30N 34°57' E 136°44'0 0.0
2018-Feb-25 14:00N 34°57' E 136°44'0 0.0
2018-Feb-25 13:30N 34°57' E 136°44'0 0.0
2018-Feb-25 13:00N 34°57' E 136°44'0 0.0
2018-Feb-25 12:30N 34°57' E 136°44'0 0.0
2018-Feb-25 12:00N 34°57' E 136°44'0 0.0
2018-Feb-25 11:30N 34°57' E 136°44'0 0.0
2018-Feb-25 11:00N 34°57' E 136°44'0 0.0
2018-Feb-25 10:30N 34°57' E 136°44'4 7.3
2018-Feb-25 10:00N 34°57' E 136°39'1 2.0
2018-Feb-25 09:30N 34°58' E 136°39'0 0.0
2018-Feb-25 09:00N 34°58' E 136°39'0 0.0
2018-Feb-25 08:30N 34°58' E 136°39'0 0.0
2018-Feb-25 08:00N 34°58' E 136°39'0 0.0
2018-Feb-25 07:30N 34°58' E 136°39'0 0.0
2018-Feb-25 07:00N 34°58' E 136°39'0 0.0
2018-Feb-25 06:30N 34°58' E 136°39'0 0.0
2018-Feb-25 06:00N 34°58' E 136°39'0 0.0
2018-Feb-25 05:30N 34°58' E 136°39'0 0.0
2018-Feb-25 05:00N 34°58' E 136°39'0 0.0
2018-Feb-25 04:30N 34°58' E 136°39'1 2.0
2018-Feb-25 04:00N 34°57' E 136°39'2 3.1
2018-Feb-25 03:29N 34°57' E 136°41'0 0.0
2018-Feb-25 03:00N 34°57' E 136°41'0 0.1
2018-Feb-25 02:30N 34°57' E 136°41'0 0.0
2018-Feb-25 02:00N 34°57' E 136°41'0 0.0
2018-Feb-25 01:30N 34°57' E 136°41'0 0.0
2018-Feb-25 01:00N 34°57' E 136°41'0 0.0
2018-Feb-25 00:30N 34°57' E 136°41'0 0.0
2018-Feb-25 00:00N 34°57' E 136°41'0 0.0
2018-Feb-24 23:30N 34°57' E 136°41'0 0.0
2018-Feb-24 23:00N 34°57' E 136°41'0 0.0
2018-Feb-24 22:30N 34°57' E 136°41'0 0.0
2018-Feb-24 22:00N 34°57' E 136°41'0 0.0
2018-Feb-24 21:30N 34°57' E 136°41'0 0.0
2018-Feb-24 21:00N 34°57' E 136°41'0 0.0
2018-Feb-24 20:30N 34°57' E 136°41'0 0.0
2018-Feb-24 20:00N 34°57' E 136°41'0 0.0
2018-Feb-24 19:30N 34°57' E 136°41'0 0.0
2018-Feb-24 19:00N 34°57' E 136°41'0 0.0
2018-Feb-24 18:30N 34°57' E 136°41'0 0.0
2018-Feb-24 18:00N 34°57' E 136°41'0 0.0
2018-Feb-24 17:30N 34°57' E 136°41'0 0.0
2018-Feb-24 17:00N 34°57' E 136°41'0 0.0
2018-Feb-24 16:30N 34°57' E 136°41'0 0.0
2018-Feb-24 16:00N 34°57' E 136°41'0 0.0
2018-Feb-24 15:29N 34°57' E 136°41'0 0.0
2018-Feb-24 15:00N 34°57' E 136°41'0 0.0
2018-Feb-24 14:30N 34°57' E 136°41'0 0.1
2018-Feb-24 14:00N 34°57' E 136°41'0 0.0
2018-Feb-24 13:30N 34°57' E 136°41'0 0.0
2018-Feb-24 13:00N 34°57' E 136°41'0 0.1
2018-Feb-24 12:30N 34°57' E 136°41'5 9.2
2018-Feb-24 11:59N 34°53' E 136°44'612.8
2018-Feb-24 11:30N 34°47' E 136°47'612.6
2018-Feb-24 11:00N 34°42' E 136°51'612.7
2018-Feb-24 10:30N 34°37' E 136°56'712.9
2018-Feb-24 09:59N 34°33' E 137°02'10411.0
2018-Feb-24 00:30N 33°36' E 135°16'713.1
2018-Feb-24 00:00N 33°41' E 135°11'713.2
2018-Feb-23 23:30N 33°46' E 135°06'713.5
2018-Feb-23 23:00N 33°52' E 135°01'713.5
2018-Feb-23 22:30N 33°58' E 134°59'713.7
2018-Feb-23 22:00N 34°05' E 134°59'713.5
2018-Feb-23 21:30N 34°12' E 134°59'713.1
2018-Feb-23 21:00N 34°18' E 134°59'612.9
2018-Feb-23 20:30N 34°25' E 135°00'713.1
2018-Feb-23 20:00N 34°31' E 135°02'510.4
2018-Feb-23 19:30N 34°36' E 135°02'611.5
2018-Feb-23 19:00N 34°35' E 134°55'611.7
2018-Feb-23 18:30N 34°33' E 134°49'612.7
2018-Feb-23 18:00N 34°31' E 134°42'612.9
2018-Feb-23 17:30N 34°28' E 134°34'713.2
2018-Feb-23 17:00N 34°26' E 134°27'613.1
2018-Feb-23 16:31N 34°24' E 134°19'612.1
2018-Feb-23 16:00N 34°24' E 134°12'71 3.2
2018-Feb-22 17:49N 34°03' E 132°50'514.5
2018-Feb-22 17:29N 34°00' E 132°45'714.6
2018-Feb-22 17:00N 33°55' E 132°39'814.5
2018-Feb-22 16:29N 33°50' E 132°33'714.2
2018-Feb-22 16:01N 33°46' E 132°26'714.2
2018-Feb-22 15:30N 33°44' E 132°18'1114.0
2018-Feb-22 14:45N 33°42' E 132°05'413.7
2018-Feb-22 14:28N 33°43' E 132°01'613.6
2018-Feb-22 14:00N 33°44' E 131°53'713.4
2018-Feb-22 13:30N 33°45' E 131°46'613.2
2018-Feb-22 13:00N 33°46' E 131°38'713.3
2018-Feb-22 12:30N 33°48' E 131°30'713.3
2018-Feb-22 12:00N 33°49' E 131°22'713.4
2018-Feb-22 11:30N 33°51' E 131°14'713.4
2018-Feb-22 11:00N 33°54' E 131°07'714.2
2018-Feb-22 10:31N 33°58' E 131°01'713.9
2018-Feb-22 10:00N 33°54' E 130°54'713.4
2018-Feb-22 09:30N 34°01' E 130°52'713.9
2018-Feb-22 09:00N 34°08' E 130°50'714.0
2018-Feb-22 08:30N 34°14' E 130°49'713.5
2018-Feb-22 08:00N 34°21' E 130°49'611.4
2018-Feb-22 07:30N 34°26' E 130°53'  
2018-Feb-19 14:20N 34°30' E 130°59'513.1
2018-Feb-19 13:58N 34°28' E 130°54'612.9
2018-Feb-19 13:30N 34°25' E 130°48'612.3
2018-Feb-19 12:59N 34°18' E 130°49'612.6
2018-Feb-19 12:30N 34°12' E 130°49'612.9
2018-Feb-19 12:00N 34°06' E 130°50'613.0
2018-Feb-19 11:30N 33°60' E 130°53'510.6
2018-Feb-19 11:00N 33°54' E 130°55'5 9.7
2018-Feb-19 10:30N 33°58' E 130°58'5 9.4
2018-Feb-19 10:00N 33°57' E 131°04'612.7
2018-Feb-19 09:30N 33°54' E 131°11'2 3.9
2018-Feb-19 09:00N 33°56' E 131°11'0 0.0
2018-Feb-19 08:30N 33°56' E 131°11'0 0.0
2018-Feb-19 08:00N 33°56' E 131°11'0 0.0
2018-Feb-19 07:30N 33°56' E 131°11'0 0.0
2018-Feb-19 07:00N 33°56' E 131°11'0 0.0
2018-Feb-19 06:30N 33°56' E 131°11'0 0.0
2018-Feb-19 06:00N 33°56' E 131°11'0 0.0
2018-Feb-19 05:30N 33°56' E 131°11'0 0.0
2018-Feb-19 05:00N 33°56' E 131°11'0 0.0
2018-Feb-19 04:30N 33°56' E 131°11'0 0.1
2018-Feb-19 04:00N 33°56' E 131°11'0 0.1
2018-Feb-19 03:30N 33°56' E 131°11'0 0.1
2018-Feb-19 03:00N 33°56' E 131°11'0 0.0
2018-Feb-19 02:30N 33°56' E 131°11'0 0.0
2018-Feb-19 02:00N 33°56' E 131°11'0 0.3
2018-Feb-19 01:30N 33°56' E 131°11'510.6
2018-Feb-19 01:00N 33°52' E 131°15'714.5
2018-Feb-19 00:31N 33°48' E 131°23'714.4
2018-Feb-19 00:00N 33°45' E 131°30'815.1
2018-Feb-18 23:30N 33°42' E 131°39'714.6
2018-Feb-18 23:01N 33°37' E 131°45'815.3
2018-Feb-18 22:30N 33°31' E 131°50'714.8
2018-Feb-18 22:00N 33°25' E 131°55'814.9
2018-Feb-18 21:30N 33°18' E 131°60'1 0.0
2018-Feb-17 08:52N 33°17' E 131°60'612.6
2018-Feb-17 08:23N 33°22' E 131°56'513.2
2018-Feb-17 08:00N 33°26' E 131°53'713.6
2018-Feb-17 07:30N 33°32' E 131°49'713.5
2018-Feb-17 07:00N 33°38' E 131°45'713.7
2018-Feb-17 06:30N 33°42' E 131°38'713.9
2018-Feb-17 06:00N 33°45' E 131°30'714.0
2018-Feb-17 05:30N 33°48' E 131°23'713.9
2018-Feb-17 05:00N 33°51' E 131°15'510.9
2018-Feb-17 04:30N 33°56' E 131°12'1 1.1
2018-Feb-17 04:00N 33°56' E 131°11'0 0.0
2018-Feb-17 03:30N 33°56' E 131°11'0 0.0
2018-Feb-17 03:00N 33°56' E 131°11'0 0.0
2018-Feb-17 02:30N 33°56' E 131°11'0 0.0
2018-Feb-17 02:00N 33°56' E 131°11'0 0.0
2018-Feb-17 01:30N 33°56' E 131°11'0 0.0
2018-Feb-17 01:00N 33°56' E 131°11'0 0.0
2018-Feb-17 00:30N 33°56' E 131°11'0 0.0
2018-Feb-17 00:00N 33°56' E 131°11'0 0.0
2018-Feb-16 23:30N 33°56' E 131°11'0 0.0
2018-Feb-16 23:00N 33°56' E 131°11'1 1.0
2018-Feb-16 22:30N 33°56' E 131°12'2 4.3
2018-Feb-16 22:00N 33°53' E 131°11'0 0.1
2018-Feb-16 21:29N 33°53' E 131°11'0 0.0
2018-Feb-16 21:00N 33°53' E 131°11'0 0.0
2018-Feb-16 20:30N 33°53' E 131°11'0 0.0
2018-Feb-16 20:00N 33°53' E 131°11'0 0.2
2018-Feb-16 19:31N 33°54' E 131°11'611.6
2018-Feb-16 19:00N 33°56' E 131°05'612.9
2018-Feb-16 18:30N 33°57' E 130°57'5 9.4
2018-Feb-16 18:00N 33°57' E 130°52'713.5
2018-Feb-16 17:30N 34°03' E 130°51'713.6
2018-Feb-16 17:00N 34°10' E 130°50'713.5
2018-Feb-16 16:30N 34°17' E 130°49'612.5
2018-Feb-16 16:00N 34°23' E 130°48'  
Track history (hours):
 
Tides and Currents Weather Stations Pressure Air Temp Water Temp Dewpoint Dewpoint Depression Visibility Wind Speed Wind Dir Waves Ship Positions

Shinmichimaru

Last reported at 2018-Feb-26 03:00 UTC. Time now 2018-Feb-26 03:19 UTC.
Position N 34°57' E 136°39'.

Length 105 m; draft 6.3 m.

Type: Tanker. MMSI: 432356000.

Date/timePositionNaut miles runAvg speedWind from/ knotsBaromVisibWave heightAir tempDewpointWater temp
2018-Feb-26 03:00N 34°57' E 136°39'4 7.8
2018-Feb-26 02:30N 34°57' E 136°44'0 0.1
2018-Feb-26 02:00N 34°57' E 136°44'0 0.0
2018-Feb-26 01:30N 34°57' E 136°44'0 0.1
2018-Feb-26 01:00N 34°57' E 136°44'0 0.0
2018-Feb-26 00:30N 34°57' E 136°44'0 0.0
2018-Feb-26 00:00N 34°57' E 136°44'0 0.0
2018-Feb-25 23:30N 34°57' E 136°44'0 0.0
2018-Feb-25 23:00N 34°57' E 136°44'0 0.0
2018-Feb-25 22:30N 34°57' E 136°44'0 0.0
2018-Feb-25 22:00N 34°57' E 136°44'0 0.0
2018-Feb-25 21:29N 34°57' E 136°44'0 0.0
2018-Feb-25 21:00N 34°57' E 136°44'0 0.0
2018-Feb-25 20:30N 34°57' E 136°44'0 0.0
2018-Feb-25 20:00N 34°57' E 136°44'0 0.0
2018-Feb-25 19:29N 34°57' E 136°44'0 0.0
2018-Feb-25 19:00N 34°57' E 136°44'0 0.0
2018-Feb-25 18:30N 34°57' E 136°44'0 0.0
2018-Feb-25 18:00N 34°57' E 136°44'0 0.1
2018-Feb-25 17:30N 34°57' E 136°44'0 0.1
2018-Feb-25 17:00N 34°57' E 136°44'0 0.1
2018-Feb-25 16:30N 34°57' E 136°44'0 0.0
2018-Feb-25 16:00N 34°57' E 136°44'0 0.0
2018-Feb-25 15:29N 34°57' E 136°44'0 0.0
2018-Feb-25 15:00N 34°57' E 136°44'0 0.0
2018-Feb-25 14:30N 34°57' E 136°44'0 0.0
2018-Feb-25 14:00N 34°57' E 136°44'0 0.0
2018-Feb-25 13:30N 34°57' E 136°44'0 0.0
2018-Feb-25 13:00N 34°57' E 136°44'0 0.0
2018-Feb-25 12:30N 34°57' E 136°44'0 0.0
2018-Feb-25 12:00N 34°57' E 136°44'0 0.0
2018-Feb-25 11:30N 34°57' E 136°44'0 0.0
2018-Feb-25 11:00N 34°57' E 136°44'0 0.0
2018-Feb-25 10:30N 34°57' E 136°44'4 7.3
2018-Feb-25 10:00N 34°57' E 136°39'1 2.0
2018-Feb-25 09:30N 34°58' E 136°39'0 0.0
2018-Feb-25 09:00N 34°58' E 136°39'0 0.0
2018-Feb-25 08:30N 34°58' E 136°39'0 0.0
2018-Feb-25 08:00N 34°58' E 136°39'0 0.0
2018-Feb-25 07:30N 34°58' E 136°39'0 0.0
2018-Feb-25 07:00N 34°58' E 136°39'0 0.0
2018-Feb-25 06:30N 34°58' E 136°39'0 0.0
2018-Feb-25 06:00N 34°58' E 136°39'0 0.0
2018-Feb-25 05:30N 34°58' E 136°39'0 0.0
2018-Feb-25 05:00N 34°58' E 136°39'0 0.0
2018-Feb-25 04:30N 34°58' E 136°39'1 2.0
2018-Feb-25 04:00N 34°57' E 136°39'2 3.1
2018-Feb-25 03:29N 34°57' E 136°41'0 0.0
2018-Feb-25 03:00N 34°57' E 136°41'0 0.1
2018-Feb-25 02:30N 34°57' E 136°41'0 0.0
2018-Feb-25 02:00N 34°57' E 136°41'0 0.0
2018-Feb-25 01:30N 34°57' E 136°41'0 0.0
2018-Feb-25 01:00N 34°57' E 136°41'0 0.0
2018-Feb-25 00:30N 34°57' E 136°41'0 0.0
2018-Feb-25 00:00N 34°57' E 136°41'0 0.0
2018-Feb-24 23:30N 34°57' E 136°41'0 0.0
2018-Feb-24 23:00N 34°57' E 136°41'0 0.0
2018-Feb-24 22:30N 34°57' E 136°41'0 0.0
2018-Feb-24 22:00N 34°57' E 136°41'0 0.0
2018-Feb-24 21:30N 34°57' E 136°41'0 0.0
2018-Feb-24 21:00N 34°57' E 136°41'0 0.0
2018-Feb-24 20:30N 34°57' E 136°41'0 0.0
2018-Feb-24 20:00N 34°57' E 136°41'0 0.0
2018-Feb-24 19:30N 34°57' E 136°41'0 0.0
2018-Feb-24 19:00N 34°57' E 136°41'0 0.0
2018-Feb-24 18:30N 34°57' E 136°41'0 0.0
2018-Feb-24 18:00N 34°57' E 136°41'0 0.0
2018-Feb-24 17:30N 34°57' E 136°41'0 0.0
2018-Feb-24 17:00N 34°57' E 136°41'0 0.0
2018-Feb-24 16:30N 34°57' E 136°41'0 0.0
2018-Feb-24 16:00N 34°57' E 136°41'0 0.0
2018-Feb-24 15:29N 34°57' E 136°41'0 0.0
2018-Feb-24 15:00N 34°57' E 136°41'0 0.0
2018-Feb-24 14:30N 34°57' E 136°41'0 0.1
2018-Feb-24 14:00N 34°57' E 136°41'0 0.0
2018-Feb-24 13:30N 34°57' E 136°41'0 0.0
2018-Feb-24 13:00N 34°57' E 136°41'0 0.1
2018-Feb-24 12:30N 34°57' E 136°41'5 9.2
2018-Feb-24 11:59N 34°53' E 136°44'612.8
2018-Feb-24 11:30N 34°47' E 136°47'612.6
2018-Feb-24 11:00N 34°42' E 136°51'612.7
2018-Feb-24 10:30N 34°37' E 136°56'712.9
2018-Feb-24 09:59N 34°33' E 137°02'10411.0
2018-Feb-24 00:30N 33°36' E 135°16'713.1
2018-Feb-24 00:00N 33°41' E 135°11'713.2
2018-Feb-23 23:30N 33°46' E 135°06'713.5
2018-Feb-23 23:00N 33°52' E 135°01'713.5
2018-Feb-23 22:30N 33°58' E 134°59'713.7
2018-Feb-23 22:00N 34°05' E 134°59'713.5
2018-Feb-23 21:30N 34°12' E 134°59'713.1
2018-Feb-23 21:00N 34°18' E 134°59'612.9
2018-Feb-23 20:30N 34°25' E 135°00'713.1
2018-Feb-23 20:00N 34°31' E 135°02'510.4
2018-Feb-23 19:30N 34°36' E 135°02'611.5
2018-Feb-23 19:00N 34°35' E 134°55'611.7
2018-Feb-23 18:30N 34°33' E 134°49'612.7
2018-Feb-23 18:00N 34°31' E 134°42'612.9
2018-Feb-23 17:30N 34°28' E 134°34'713.2
2018-Feb-23 17:00N 34°26' E 134°27'613.1
2018-Feb-23 16:31N 34°24' E 134°19'612.1
2018-Feb-23 16:00N 34°24' E 134°12'71 3.2
2018-Feb-22 17:49N 34°03' E 132°50'514.5
2018-Feb-22 17:29N 34°00' E 132°45'714.6
2018-Feb-22 17:00N 33°55' E 132°39'814.5
2018-Feb-22 16:29N 33°50' E 132°33'714.2
2018-Feb-22 16:01N 33°46' E 132°26'714.2
2018-Feb-22 15:30N 33°44' E 132°18'1114.0
2018-Feb-22 14:45N 33°42' E 132°05'413.7
2018-Feb-22 14:28N 33°43' E 132°01'613.6
2018-Feb-22 14:00N 33°44' E 131°53'713.4
2018-Feb-22 13:30N 33°45' E 131°46'613.2
2018-Feb-22 13:00N 33°46' E 131°38'713.3
2018-Feb-22 12:30N 33°48' E 131°30'713.3
2018-Feb-22 12:00N 33°49' E 131°22'713.4
2018-Feb-22 11:30N 33°51' E 131°14'713.4
2018-Feb-22 11:00N 33°54' E 131°07'714.2
2018-Feb-22 10:31N 33°58' E 131°01'713.9
2018-Feb-22 10:00N 33°54' E 130°54'713.4
2018-Feb-22 09:30N 34°01' E 130°52'713.9
2018-Feb-22 09:00N 34°08' E 130°50'714.0
2018-Feb-22 08:30N 34°14' E 130°49'713.5
2018-Feb-22 08:00N 34°21' E 130°49'611.4
2018-Feb-22 07:30N 34°26' E 130°53'  
2018-Feb-19 14:20N 34°30' E 130°59'513.1
2018-Feb-19 13:58N 34°28' E 130°54'612.9
2018-Feb-19 13:30N 34°25' E 130°48'612.3
2018-Feb-19 12:59N 34°18' E 130°49'612.6
2018-Feb-19 12:30N 34°12' E 130°49'612.9
2018-Feb-19 12:00N 34°06' E 130°50'613.0
2018-Feb-19 11:30N 33°60' E 130°53'510.6
2018-Feb-19 11:00N 33°54' E 130°55'5 9.7
2018-Feb-19 10:30N 33°58' E 130°58'5 9.4
2018-Feb-19 10:00N 33°57' E 131°04'612.7
2018-Feb-19 09:30N 33°54' E 131°11'2 3.9
2018-Feb-19 09:00N 33°56' E 131°11'0 0.0
2018-Feb-19 08:30N 33°56' E 131°11'0 0.0
2018-Feb-19 08:00N 33°56' E 131°11'0 0.0
2018-Feb-19 07:30N 33°56' E 131°11'0 0.0
2018-Feb-19 07:00N 33°56' E 131°11'0 0.0
2018-Feb-19 06:30N 33°56' E 131°11'0 0.0
2018-Feb-19 06:00N 33°56' E 131°11'0 0.0
2018-Feb-19 05:30N 33°56' E 131°11'0 0.0
2018-Feb-19 05:00N 33°56' E 131°11'0 0.0
2018-Feb-19 04:30N 33°56' E 131°11'0 0.1
2018-Feb-19 04:00N 33°56' E 131°11'0 0.1
2018-Feb-19 03:30N 33°56' E 131°11'0 0.1
2018-Feb-19 03:00N 33°56' E 131°11'0 0.0
2018-Feb-19 02:30N 33°56' E 131°11'0 0.0
2018-Feb-19 02:00N 33°56' E 131°11'0 0.3
2018-Feb-19 01:30N 33°56' E 131°11'510.6
2018-Feb-19 01:00N 33°52' E 131°15'714.5
2018-Feb-19 00:31N 33°48' E 131°23'714.4
2018-Feb-19 00:00N 33°45' E 131°30'815.1
2018-Feb-18 23:30N 33°42' E 131°39'714.6
2018-Feb-18 23:01N 33°37' E 131°45'815.3
2018-Feb-18 22:30N 33°31' E 131°50'714.8
2018-Feb-18 22:00N 33°25' E 131°55'814.9
2018-Feb-18 21:30N 33°18' E 131°60'1 0.0
2018-Feb-17 08:52N 33°17' E 131°60'612.6
2018-Feb-17 08:23N 33°22' E 131°56'513.2
2018-Feb-17 08:00N 33°26' E 131°53'713.6
2018-Feb-17 07:30N 33°32' E 131°49'713.5
2018-Feb-17 07:00N 33°38' E 131°45'713.7
2018-Feb-17 06:30N 33°42' E 131°38'713.9
2018-Feb-17 06:00N 33°45' E 131°30'714.0
2018-Feb-17 05:30N 33°48' E 131°23'713.9
2018-Feb-17 05:00N 33°51' E 131°15'510.9
2018-Feb-17 04:30N 33°56' E 131°12'1 1.1
2018-Feb-17 04:00N 33°56' E 131°11'0 0.0
2018-Feb-17 03:30N 33°56' E 131°11'0 0.0
2018-Feb-17 03:00N 33°56' E 131°11'0 0.0
2018-Feb-17 02:30N 33°56' E 131°11'0 0.0
2018-Feb-17 02:00N 33°56' E 131°11'0 0.0
2018-Feb-17 01:30N 33°56' E 131°11'0 0.0
2018-Feb-17 01:00N 33°56' E 131°11'0 0.0
2018-Feb-17 00:30N 33°56' E 131°11'0 0.0
2018-Feb-17 00:00N 33°56' E 131°11'0 0.0
2018-Feb-16 23:30N 33°56' E 131°11'0 0.0
2018-Feb-16 23:00N 33°56' E 131°11'1 1.0
2018-Feb-16 22:30N 33°56' E 131°12'2 4.3
2018-Feb-16 22:00N 33°53' E 131°11'0 0.1
2018-Feb-16 21:29N 33°53' E 131°11'0 0.0
2018-Feb-16 21:00N 33°53' E 131°11'0 0.0
2018-Feb-16 20:30N 33°53' E 131°11'0 0.0
2018-Feb-16 20:00N 33°53' E 131°11'0 0.2
2018-Feb-16 19:31N 33°54' E 131°11'611.6
2018-Feb-16 19:00N 33°56' E 131°05'612.9
2018-Feb-16 18:30N 33°57' E 130°57'5 9.4
2018-Feb-16 18:00N 33°57' E 130°52'713.5
2018-Feb-16 17:30N 34°03' E 130°51'713.6
2018-Feb-16 17:00N 34°10' E 130°50'713.5
2018-Feb-16 16:30N 34°17' E 130°49'612.5
2018-Feb-16 16:00N 34°23' E 130°48'  

Dump ship's entire track history